Time;durP1;ratioP1;P1;durP2;ratioP2;P2;SDS_P1;SDS_P2;PMS_P1;PMS_P2;Temp;Humidity;BMP_temperature;BMP_pressure;BME280_temperature;BME280_humidity;BME280_pressure;Samples;Min_cycle;Max_cycle;Signal;HPM_P1;HPM_P2
2021/05/22 00:02:36;;;;;;;;;;;12.30;99.90;;;;;;9963062;29;19977;-51
2021/05/22 00:07:37;;;;;;;;;;;12.40;99.90;;;;;;9962182;29;20347;-51
2021/05/22 00:12:41;;;;;;;;;;;12.40;99.90;;;;;;9964894;29;19932;-51
2021/05/22 00:17:42;;;;;;;;;;;12.40;99.90;;;;;;9969984;29;20040;-51
2021/05/22 00:22:44;;;;;;;;;;;12.40;99.90;;;;;;9970063;29;19963;-51
2021/05/22 00:27:45;;;;;;;;;;;12.30;99.90;;;;;;9971001;29;19925;-51
2021/05/22 00:32:45;;;;;;;;;;;12.20;99.90;;;;;;9971276;29;20274;-51
2021/05/22 00:37:46;;;;;;;;;;;12.10;99.90;;;;;;9964883;29;20516;-51
2021/05/22 00:42:47;;;;;;;;;;;12.20;99.90;;;;;;9970050;29;19920;-51
2021/05/22 00:47:49;;;;;;;;;;;12.10;99.90;;;;;;9971537;29;19934;-51
2021/05/22 00:52:50;;;;;;;;;;;12.00;99.90;;;;;;9969549;29;19916;-51
2021/05/22 00:57:51;;;;;;;;;;;12.00;99.90;;;;;;9969579;29;19928;-51
2021/05/22 01:02:52;;;;;;;;;;;11.90;99.90;;;;;;9969940;29;20336;-51
2021/05/22 01:07:52;;;;;;;;;;;11.60;99.90;;;;;;9968151;29;20019;-51
2021/05/22 01:12:55;;;;;;;;;;;11.40;99.90;;;;;;9966907;29;19967;-51
2021/05/22 01:17:55;;;;;;;;;;;11.30;99.90;;;;;;9969232;29;19970;-50
2021/05/22 01:22:58;;;;;;;;;;;11.20;99.90;;;;;;9966205;29;19921;-50
2021/05/22 01:28:00;;;;;;;;;;;11.00;99.90;;;;;;9968125;29;19917;-51
2021/05/22 01:33:01;;;;;;;;;;;10.90;99.90;;;;;;9968475;29;20325;-50
2021/05/22 01:38:01;;;;;;;;;;;10.80;99.90;;;;;;9965596;29;19940;-51
2021/05/22 01:43:02;;;;;;;;;;;10.70;99.90;;;;;;9967985;29;19924;-51
2021/05/22 01:48:03;;;;;;;;;;;10.60;99.90;;;;;;9967555;29;22732;-51
2021/05/22 01:53:07;;;;;;;;;;;10.70;99.90;;;;;;9967765;29;19925;-51
2021/05/22 01:58:09;;;;;;;;;;;10.70;99.90;;;;;;9965635;29;19920;-50
2021/05/22 02:03:16;;;;;;;;;;;10.80;99.90;;;;;;9953542;29;19931;-51
2021/05/22 02:08:19;;;;;;;;;;;10.70;99.90;;;;;;9971139;29;19920;-50
2021/05/22 02:13:20;;;;;;;;;;;10.60;99.90;;;;;;9968986;29;20444;-51
2021/05/22 02:18:22;;;;;;;;;;;10.70;99.90;;;;;;9969387;29;19929;-50
2021/05/22 02:23:23;;;;;;;;;;;10.70;99.90;;;;;;9967548;29;19993;-51
2021/05/22 02:28:25;;;;;;;;;;;10.80;99.90;;;;;;9968524;29;19920;-50
2021/05/22 02:33:25;;;;;;;;;;;10.90;99.90;;;;;;9966240;29;19916;-50
2021/05/22 02:38:28;;;;;;;;;;;10.90;99.90;;;;;;9961941;29;19921;-50
2021/05/22 02:43:30;;;;;;;;;;;10.90;99.90;;;;;;9965620;29;19923;-51
2021/05/22 02:48:31;;;;;;;;;;;11.00;99.90;;;;;;9966659;29;19920;-50
2021/05/22 02:53:33;;;;;;;;;;;11.20;99.90;;;;;;9963593;29;20373;-51
2021/05/22 02:58:36;;;;;;;;;;;11.10;99.90;;;;;;9967546;29;19955;-50
2021/05/22 03:03:37;;;;;;;;;;;11.20;99.90;;;;;;9963262;29;19913;-50
2021/05/22 03:08:44;;;;;;;;;;;11.20;99.90;;;;;;9964361;29;20381;-50
2021/05/22 03:13:45;;;;;;;;;;;11.20;99.90;;;;;;9964967;29;19917;-51
2021/05/22 03:18:46;;;;;;;;;;;11.10;99.90;;;;;;9964998;29;19916;-50
2021/05/22 03:23:47;;;;;;;;;;;11.00;99.90;;;;;;9964946;29;19920;-51
2021/05/22 03:28:47;;;;;;;;;;;11.00;99.90;;;;;;9965641;29;19931;-51
2021/05/22 03:33:48;;;;;;;;;;;10.90;99.90;;;;;;9967355;29;19929;-51
2021/05/22 03:38:49;;;;;;;;;;;10.80;99.90;;;;;;9960793;29;20338;-51
2021/05/22 03:43:49;;;;;;;;;;;10.70;99.90;;;;;;9963483;29;19928;-50
2021/05/22 03:48:50;;;;;;;;;;;10.60;99.90;;;;;;9964884;29;20350;-51
2021/05/22 03:53:51;;;;;;;;;;;10.50;99.90;;;;;;9963914;29;20004;-50
2021/05/22 03:58:53;;;;;;;;;;;10.50;99.90;;;;;;9965500;29;19932;-51
2021/05/22 04:03:53;;;;;;;;;;;10.40;99.90;;;;;;9964891;29;19981;-51
2021/05/22 04:08:54;;;;;;;;;;;10.40;99.90;;;;;;9960623;29;19916;-50
2021/05/22 04:13:55;;;;;;;;;;;10.40;99.90;;;;;;9962682;29;20538;-50
2021/05/22 04:18:56;;;;;;;;;;;10.50;99.90;;;;;;9963890;29;21109;-51
2021/05/22 04:23:56;;;;;;;;;;;10.50;99.90;;;;;;9963014;29;20080;-50
2021/05/22 04:28:57;;;;;;;;;;;10.50;99.90;;;;;;9964243;29;19920;-50
2021/05/22 04:33:57;;;;;;;;;;;10.60;99.90;;;;;;9963163;29;19920;-51
2021/05/22 04:38:58;;;;;;;;;;;10.50;99.90;;;;;;9962841;29;20111;-51
2021/05/22 04:43:59;;;;;;;;;;;10.30;99.90;;;;;;9963365;29;19932;-51
2021/05/22 04:48:59;;;;;;;;;;;10.30;99.90;;;;;;9962383;29;19920;-51
2021/05/22 04:54:01;;;;;;;;;;;10.30;99.90;;;;;;9961812;29;19925;-51
2021/05/22 04:59:02;;;;;;;;;;;10.30;99.90;;;;;;9968813;29;19928;-51
2021/05/22 05:04:03;;;;;;;;;;;10.20;99.90;;;;;;9968078;29;19999;-51
2021/05/22 05:09:05;;;;;;;;;;;10.10;99.90;;;;;;9969197;29;19924;-51
2021/05/22 05:14:05;;;;;;;;;;;10.10;99.90;;;;;;9971743;29;19927;-51
2021/05/22 05:19:06;;;;;;;;;;;10.10;99.90;;;;;;9968115;29;19924;-51
2021/05/22 05:24:07;;;;;;;;;;;10.00;99.90;;;;;;9966544;29;19928;-51
2021/05/22 05:29:07;;;;;;;;;;;10.00;99.90;;;;;;9967847;29;19921;-52
2021/05/22 05:34:08;;;;;;;;;;;9.90;99.90;;;;;;9968904;29;19973;-51
2021/05/22 05:39:10;;;;;;;;;;;9.90;99.90;;;;;;9971284;29;19953;-51
2021/05/22 05:44:11;;;;;;;;;;;9.90;99.90;;;;;;9975464;29;20433;-51
2021/05/22 05:49:12;;;;;;;;;;;10.00;99.90;;;;;;9971613;29;19921;-51
2021/05/22 05:54:12;;;;;;;;;;;10.00;99.90;;;;;;9965103;29;19946;-50
2021/05/22 05:59:13;;;;;;;;;;;10.10;99.90;;;;;;9964736;29;20420;-51
2021/05/22 06:04:13;;;;;;;;;;;10.00;99.90;;;;;;9966202;29;19924;-51
2021/05/22 06:09:14;;;;;;;;;;;10.10;99.90;;;;;;9966748;29;19932;-51
2021/05/22 06:14:27;;;;;;;;;;;10.00;99.90;;;;;;9965700;29;20217;-51
2021/05/22 06:19:28;;;;;;;;;;;10.20;99.90;;;;;;9966976;29;19925;-52
2021/05/22 06:24:28;;;;;;;;;;;10.20;99.90;;;;;;9954841;29;19925;-52
2021/05/22 06:29:29;;;;;;;;;;;10.30;99.90;;;;;;9912334;29;20130;-52
2021/05/22 06:34:30;;;;;;;;;;;10.40;99.90;;;;;;9964927;29;21687;-52
2021/05/22 06:39:30;;;;;;;;;;;10.40;99.90;;;;;;9965093;29;19921;-52
2021/05/22 06:55:16;;;;;;;;;;;10.40;99.90;;;;;;10149770;23;19950;-94
2021/05/22 07:00:42;;;;;;;;;;;10.60;99.90;;;;;;10093352;29;19920;-93
2021/05/22 07:06:56;;;;;;;;;;;10.70;99.90;;;;;;9945510;29;20338;-94
2021/05/22 07:12:58;;;;;;;;;;;10.70;99.90;;;;;;10089989;29;19916;-94
2021/05/22 07:25:16;;;;;;;;;;;10.60;99.90;;;;;;10095342;29;19924;-94
2021/05/22 07:31:13;;;;;;;;;;;10.60;99.90;;;;;;10091336;29;19912;-94
2021/05/22 07:37:26;;;;;;;;;;;10.60;99.90;;;;;;10099219;29;19912;-93
2021/05/22 07:43:20;;;;;;;;;;;10.60;99.90;;;;;;10080715;29;19933;-94
2021/05/22 07:49:06;;;;;;;;;;;10.60;99.90;;;;;;10068980;29;19955;-94
2021/05/22 08:20:04;;;;;;;;;;;10.80;99.90;;;;;;10025331;29;19921;-94
2021/05/22 08:31:22;;;;;;;;;;;11.20;99.90;;;;;;10065360;29;19928;-55
2021/05/22 08:36:22;;;;;;;;;;;11.40;99.90;;;;;;10058592;29;19963;-55
2021/05/22 08:41:23;;;;;;;;;;;11.50;99.90;;;;;;10077507;29;20457;-55
2021/05/22 08:46:24;;;;;;;;;;;11.70;99.90;;;;;;10059458;29;20387;-54
2021/05/22 08:51:25;;;;;;;;;;;11.80;99.90;;;;;;10077068;29;19915;-55
2021/05/22 08:56:25;;;;;;;;;;;11.90;99.90;;;;;;10077762;29;20304;-55
2021/05/22 09:01:26;;;;;;;;;;;11.90;99.90;;;;;;10080498;29;20377;-53
2021/05/22 09:06:26;;;;;;;;;;;11.90;99.90;;;;;;10075223;29;20026;-53
2021/05/22 09:11:27;;;;;;;;;;;11.90;99.90;;;;;;10078716;29;20010;-53
2021/05/22 09:16:34;;;;;;;;;;;11.90;99.90;;;;;;10075416;29;19916;-54
2021/05/22 09:21:35;;;;;;;;;;;11.90;99.90;;;;;;10075968;29;20441;-54
2021/05/22 09:26:35;;;;;;;;;;;11.90;99.90;;;;;;10073960;29;19924;-55
2021/05/22 09:31:37;;;;;;;;;;;11.90;99.90;;;;;;10077823;29;20307;-54
2021/05/22 09:36:46;;;;;;;;;;;11.80;99.90;;;;;;10075550;29;20022;-54
2021/05/22 09:41:48;;;;;;;;;;;11.80;99.90;;;;;;10076065;29;20320;-54
2021/05/22 09:46:50;;;;;;;;;;;11.90;99.90;;;;;;10074172;29;19979;-54
2021/05/22 09:51:58;;;;;;;;;;;11.90;99.90;;;;;;10076272;29;20342;-54
2021/05/22 09:56:58;;;;;;;;;;;11.80;99.90;;;;;;10067417;29;20010;-54
2021/05/22 10:01:59;;;;;;;;;;;11.60;99.90;;;;;;10068741;29;19919;-54
2021/05/22 10:07:00;;;;;;;;;;;11.40;99.90;;;;;;10063129;29;19946;-54
2021/05/22 10:12:02;;;;;;;;;;;11.30;99.90;;;;;;10068431;29;19931;-54
2021/05/22 10:17:03;;;;;;;;;;;11.30;99.90;;;;;;10066383;29;20300;-54
2021/05/22 10:22:04;;;;;;;;;;;11.30;99.90;;;;;;10066333;29;19916;-54
2021/05/22 10:27:05;;;;;;;;;;;11.30;99.90;;;;;;10063600;29;19930;-54
2021/05/22 10:32:06;;;;;;;;;;;11.40;99.90;;;;;;10065398;29;20070;-54
2021/05/22 10:37:06;;;;;;;;;;;11.70;99.90;;;;;;10066623;29;20455;-54
2021/05/22 10:42:09;;;;;;;;;;;11.80;99.90;;;;;;10068305;29;19992;-54
2021/05/22 10:47:12;;;;;;;;;;;11.80;99.90;;;;;;10069404;29;19966;-54
2021/05/22 10:52:20;;;;;;;;;;;11.60;99.90;;;;;;10071390;29;19970;-54
2021/05/22 10:57:20;;;;;;;;;;;11.40;99.90;;;;;;10068580;29;19919;-54
2021/05/22 11:02:38;;;;;;;;;;;11.40;99.90;;;;;;10064710;29;19924;-53
2021/05/22 11:07:39;;;;;;;;;;;11.50;99.90;;;;;;10059165;29;19919;-53
2021/05/22 11:12:40;;;;;;;;;;;11.60;99.90;;;;;;10063857;29;20383;-53
2021/05/22 11:17:41;;;;;;;;;;;11.50;99.90;;;;;;10062405;29;19931;-53
2021/05/22 11:22:42;;;;;;;;;;;11.50;99.90;;;;;;10038964;29;19938;-54
2021/05/22 11:32:50;;;;;;;;;;;11.60;99.90;;;;;;10047014;29;20389;-53
2021/05/22 11:37:51;;;;;;;;;;;11.60;99.90;;;;;;10059889;29;19926;-53
2021/05/22 11:42:52;;;;;;;;;;;11.50;99.90;;;;;;10071468;29;19980;-53
2021/05/22 11:47:52;;;;;;;;;;;11.70;99.90;;;;;;10065469;29;20280;-53
2021/05/22 11:52:53;;;;;;;;;;;12.10;99.90;;;;;;10064197;29;19915;-53
2021/05/22 11:58:04;;;;;;;;;;;12.20;99.90;;;;;;10067897;29;20890;-52
2021/05/22 12:03:07;;;;;;;;;;;12.30;99.90;;;;;;10067760;29;19912;-53
2021/05/22 12:08:16;;;;;;;;;;;12.20;99.90;;;;;;10072392;29;19915;-53
2021/05/22 12:13:17;;;;;;;;;;;12.30;99.90;;;;;;10080200;29;19915;-54
2021/05/22 12:18:17;;;;;;;;;;;12.50;99.90;;;;;;10076075;29;19952;-54
2021/05/22 12:23:24;;;;;;;;;;;12.80;99.90;;;;;;10074301;29;19911;-53
2021/05/22 12:28:26;;;;;;;;;;;12.70;99.90;;;;;;10081004;29;20373;-53
2021/05/22 12:33:27;;;;;;;;;;;12.70;99.90;;;;;;10075632;29;20280;-53
2021/05/22 12:38:35;;;;;;;;;;;12.70;99.90;;;;;;10073030;29;20472;-53
2021/05/22 12:43:47;;;;;;;;;;;12.90;99.90;;;;;;10070177;29;20010;-53
2021/05/22 12:48:47;;;;;;;;;;;13.20;99.90;;;;;;10077953;29;20696;-53
2021/05/22 12:53:48;;;;;;;;;;;13.30;99.90;;;;;;10076674;29;19984;-53
2021/05/22 12:58:51;;;;;;;;;;;12.90;99.90;;;;;;10074210;29;20128;-53
2021/05/22 13:03:51;;;;;;;;;;;13.00;99.90;;;;;;10073316;29;19927;-53
2021/05/22 13:08:52;;;;;;;;;;;12.90;99.90;;;;;;10028695;29;19916;-53
2021/05/22 13:14:03;;;;;;;;;;;13.00;99.90;;;;;;10072203;29;19923;-53
2021/05/22 13:19:03;;;;;;;;;;;13.50;99.90;;;;;;10068992;29;20382;-53
2021/05/22 13:24:08;;;;;;;;;;;13.20;99.90;;;;;;10062088;29;19927;-53
2021/05/22 13:29:09;;;;;;;;;;;12.80;99.90;;;;;;10061114;29;19993;-53
2021/05/22 13:34:11;;;;;;;;;;;13.00;99.90;;;;;;10064939;29;19920;-53
2021/05/22 13:39:13;;;;;;;;;;;13.30;99.90;;;;;;10071155;29;20349;-53
2021/05/22 13:44:15;;;;;;;;;;;13.30;99.90;;;;;;10072545;29;20372;-53
2021/05/22 13:49:16;;;;;;;;;;;13.70;99.90;;;;;;10073987;29;19919;-53
2021/05/22 13:54:17;;;;;;;;;;;13.60;99.90;;;;;;10073657;29;19919;-53
2021/05/22 13:59:18;;;;;;;;;;;13.40;99.90;;;;;;10074563;29;19922;-53
2021/05/22 14:04:18;;;;;;;;;;;13.20;99.90;;;;;;10074925;29;20486;-53
2021/05/22 14:09:19;;;;;;;;;;;12.80;99.90;;;;;;10072349;29;19920;-53
2021/05/22 14:14:21;;;;;;;;;;;12.70;99.90;;;;;;10068808;29;19924;-53
2021/05/22 14:19:21;;;;;;;;;;;12.80;99.90;;;;;;10071912;29;20427;-53
2021/05/22 14:24:22;;;;;;;;;;;12.80;99.90;;;;;;10072274;29;19920;-53
2021/05/22 14:29:22;;;;;;;;;;;12.80;99.90;;;;;;10073814;29;19928;-53
2021/05/22 14:34:23;;;;;;;;;;;12.90;99.90;;;;;;10072820;29;19934;-53
2021/05/22 14:39:24;;;;;;;;;;;13.10;99.90;;;;;;10049545;29;19919;-53
2021/05/22 14:44:25;;;;;;;;;;;13.10;99.90;;;;;;10062060;29;19924;-53
2021/05/22 14:49:26;;;;;;;;;;;13.20;99.90;;;;;;10066812;29;19947;-53
2021/05/22 14:54:27;;;;;;;;;;;13.50;99.90;;;;;;10061853;29;19916;-53
2021/05/22 14:59:27;;;;;;;;;;;13.60;99.90;;;;;;10066348;29;19927;-53
2021/05/22 15:04:28;;;;;;;;;;;13.50;99.90;;;;;;10045695;29;19927;-53
2021/05/22 15:09:29;;;;;;;;;;;13.30;99.90;;;;;;10060982;29;19967;-53
2021/05/22 15:14:32;;;;;;;;;;;13.10;99.90;;;;;;10060753;29;20019;-53
2021/05/22 15:19:33;;;;;;;;;;;12.80;99.90;;;;;;10061003;29;20792;-52
2021/05/22 15:24:33;;;;;;;;;;;12.60;99.90;;;;;;10020922;29;19923;-52
2021/05/22 15:29:34;;;;;;;;;;;12.40;99.90;;;;;;10065015;29;19932;-53
2021/05/22 15:34:35;;;;;;;;;;;12.50;99.90;;;;;;10067398;29;20432;-53
2021/05/22 15:39:35;;;;;;;;;;;12.60;99.90;;;;;;10060723;29;20313;-53
2021/05/22 15:44:36;;;;;;;;;;;12.70;99.90;;;;;;10055672;29;20344;-53
2021/05/22 15:50:12;;;;;;;;;;;12.80;99.90;;;;;;10064082;29;19947;-53
2021/05/22 16:00:26;;;;;;;;;;;12.40;99.90;;;;;;10064158;29;20368;-53
2021/05/22 16:10:47;;;;;;;;;;;12.20;99.90;;;;;;10064310;29;20021;-53
2021/05/22 16:15:48;;;;;;;;;;;12.20;99.90;;;;;;10064099;29;20054;-53
2021/05/22 16:20:49;;;;;;;;;;;12.20;99.90;;;;;;10043776;29;19915;-53
2021/05/22 16:25:49;;;;;;;;;;;12.20;99.90;;;;;;10032974;29;19924;-53
2021/05/22 16:30:50;;;;;;;;;;;12.20;99.90;;;;;;10048845;29;19961;-53
2021/05/22 16:35:51;;;;;;;;;;;12.20;99.90;;;;;;10032937;29;19926;-53
2021/05/22 16:40:52;;;;;;;;;;;12.10;99.90;;;;;;10046604;29;20010;-53
2021/05/22 16:45:52;;;;;;;;;;;12.00;99.90;;;;;;10044767;29;19920;-53
2021/05/22 16:50:53;;;;;;;;;;;12.00;99.90;;;;;;10050602;29;20452;-53
2021/05/22 16:55:53;;;;;;;;;;;12.10;99.90;;;;;;10030859;29;19922;-54
2021/05/22 17:00:54;;;;;;;;;;;12.10;99.90;;;;;;10063014;29;19930;-53
2021/05/22 17:05:55;;;;;;;;;;;12.30;99.90;;;;;;10057360;29;19924;-53
2021/05/22 17:10:55;;;;;;;;;;;12.20;99.90;;;;;;10062537;29;21692;-53
2021/05/22 17:15:56;;;;;;;;;;;12.20;99.90;;;;;;10062771;29;19916;-53
2021/05/22 17:20:56;;;;;;;;;;;12.20;99.90;;;;;;10063590;29;20058;-53
2021/05/22 17:25:57;;;;;;;;;;;12.10;99.90;;;;;;10056705;29;20052;-53
2021/05/22 17:30:57;;;;;;;;;;;11.90;99.90;;;;;;10052745;29;20419;-53
2021/05/22 17:35:58;;;;;;;;;;;11.80;99.90;;;;;;10056061;29;20158;-53
2021/05/22 17:40:59;;;;;;;;;;;11.90;99.90;;;;;;10049594;29;19916;-53
2021/05/22 17:46:00;;;;;;;;;;;11.70;99.90;;;;;;10064458;29;19938;-53
2021/05/22 17:51:00;;;;;;;;;;;11.70;99.90;;;;;;10070156;29;19931;-53
2021/05/22 17:56:01;;;;;;;;;;;11.60;99.90;;;;;;10063006;29;19950;-53
2021/05/22 18:01:02;;;;;;;;;;;11.50;99.90;;;;;;10070684;29;19919;-53
2021/05/22 18:06:03;;;;;;;;;;;11.50;99.90;;;;;;10063541;29;20347;-54
2021/05/22 18:11:04;;;;;;;;;;;11.60;99.90;;;;;;10074760;29;19922;-53
2021/05/22 18:16:05;;;;;;;;;;;11.50;99.90;;;;;;10071915;29;19926;-53
2021/05/22 18:21:07;;;;;;;;;;;11.30;99.90;;;;;;10073077;29;19963;-53
2021/05/22 18:26:08;;;;;;;;;;;11.30;99.90;;;;;;10068132;29;20269;-53
2021/05/22 18:31:08;;;;;;;;;;;11.20;99.90;;;;;;10069562;29;19928;-53
2021/05/22 18:36:09;;;;;;;;;;;11.30;99.90;;;;;;10069919;29;19966;-53
2021/05/22 18:41:11;;;;;;;;;;;11.30;99.90;;;;;;10067081;29;20340;-53
2021/05/22 18:46:11;;;;;;;;;;;11.10;99.90;;;;;;10025275;29;19927;-53
2021/05/22 18:51:12;;;;;;;;;;;11.00;99.90;;;;;;10068452;29;19920;-53
2021/05/22 18:56:12;;;;;;;;;;;11.00;99.90;;;;;;10064301;29;19947;-53
2021/05/22 19:01:15;;;;;;;;;;;11.00;99.90;;;;;;10069681;29;19922;-53
2021/05/22 19:06:16;;;;;;;;;;;11.00;99.90;;;;;;10061885;29;19951;-53
2021/05/22 19:11:17;;;;;;;;;;;10.90;99.90;;;;;;10065370;29;20253;-53
2021/05/22 19:16:18;;;;;;;;;;;10.90;99.90;;;;;;10029072;29;19927;-53
2021/05/22 19:21:19;;;;;;;;;;;10.80;99.90;;;;;;10051919;29;19919;-53
2021/05/22 19:26:20;;;;;;;;;;;10.80;99.90;;;;;;10053287;29;20376;-53
2021/05/22 19:31:21;;;;;;;;;;;10.80;99.90;;;;;;10063065;29;20080;-53
2021/05/22 19:36:21;;;;;;;;;;;10.80;99.90;;;;;;10062533;29;19935;-53
2021/05/22 19:41:22;;;;;;;;;;;10.80;99.90;;;;;;10062509;29;19963;-53
2021/05/22 19:46:22;;;;;;;;;;;10.80;99.90;;;;;;10062816;29;20111;-54
2021/05/22 19:51:23;;;;;;;;;;;10.70;99.90;;;;;;10059612;29;19920;-52
2021/05/22 19:56:26;;;;;;;;;;;10.60;99.90;;;;;;10062039;29;19916;-52
2021/05/22 20:01:26;;;;;;;;;;;10.70;99.90;;;;;;10065281;29;19911;-52
2021/05/22 20:06:27;;;;;;;;;;;10.70;99.90;;;;;;10064999;29;19920;-52
2021/05/22 20:11:27;;;;;;;;;;;10.60;99.90;;;;;;10059297;29;19924;-52
2021/05/22 20:16:28;;;;;;;;;;;10.60;99.90;;;;;;10055422;29;19944;-52
2021/05/22 20:21:28;;;;;;;;;;;10.50;99.90;;;;;;10062093;29;19927;-52
2021/05/22 20:26:29;;;;;;;;;;;10.50;99.90;;;;;;10053068;29;20427;-52
2021/05/22 20:31:30;;;;;;;;;;;10.50;99.90;;;;;;10060742;29;19987;-52
2021/05/22 20:36:30;;;;;;;;;;;10.50;99.90;;;;;;10066368;29;19930;-53
2021/05/22 20:41:31;;;;;;;;;;;10.40;99.90;;;;;;10065054;29;20091;-53
2021/05/22 20:46:32;;;;;;;;;;;10.50;99.90;;;;;;10058758;29;19927;-53
2021/05/22 20:51:32;;;;;;;;;;;10.40;99.90;;;;;;10059864;29;19922;-52
2021/05/22 20:56:33;;;;;;;;;;;10.50;99.90;;;;;;10064041;29;19916;-53
2021/05/22 21:01:34;;;;;;;;;;;10.50;99.90;;;;;;10062209;29;19924;-53
2021/05/22 21:06:34;;;;;;;;;;;10.40;99.90;;;;;;10037979;29;19928;-53
2021/05/22 21:11:35;;;;;;;;;;;10.50;99.90;;;;;;10068629;29;19916;-53
2021/05/22 21:16:35;;;;;;;;;;;10.40;99.90;;;;;;10058671;29;19935;-53
2021/05/22 21:21:36;;;;;;;;;;;10.40;99.90;;;;;;10062679;29;19923;-53
2021/05/22 21:26:37;;;;;;;;;;;10.40;99.90;;;;;;10066051;29;19919;-53
2021/05/22 21:31:37;;;;;;;;;;;10.40;99.90;;;;;;10066199;29;19923;-52
2021/05/22 21:36:38;;;;;;;;;;;10.40;99.90;;;;;;10063055;29;20114;-53
2021/05/22 21:41:38;;;;;;;;;;;10.40;99.90;;;;;;10065734;29;20168;-53
2021/05/22 21:46:39;;;;;;;;;;;10.40;99.90;;;;;;10065659;29;20421;-53
2021/05/22 21:51:40;;;;;;;;;;;10.40;99.90;;;;;;10063721;29;19923;-52
2021/05/22 21:56:41;;;;;;;;;;;10.40;99.90;;;;;;10068216;29;19916;-53
2021/05/22 22:01:41;;;;;;;;;;;10.30;99.90;;;;;;10042720;29;19919;-53
2021/05/22 22:06:42;;;;;;;;;;;10.30;99.90;;;;;;10063721;29;20211;-53
2021/05/22 22:11:43;;;;;;;;;;;10.30;99.90;;;;;;10060238;29;19927;-53
2021/05/22 22:16:43;;;;;;;;;;;10.30;99.90;;;;;;10064427;29;19923;-53
2021/05/22 22:21:44;;;;;;;;;;;10.30;99.90;;;;;;10062351;29;19930;-53
2021/05/22 22:26:45;;;;;;;;;;;10.20;99.90;;;;;;10067294;29;19923;-53
2021/05/22 22:31:46;;;;;;;;;;;10.10;99.90;;;;;;10066432;29;19934;-53
2021/05/22 22:36:46;;;;;;;;;;;10.00;99.90;;;;;;10061446;29;20035;-53
2021/05/22 22:41:48;;;;;;;;;;;10.00;99.90;;;;;;10063809;29;20360;-52
2021/05/22 22:46:48;;;;;;;;;;;10.00;99.90;;;;;;10058815;29;19919;-52
2021/05/22 22:51:49;;;;;;;;;;;9.90;99.90;;;;;;10058854;29;20315;-53
2021/05/22 22:56:50;;;;;;;;;;;9.90;99.90;;;;;;10063221;29;20014;-53
2021/05/22 23:01:50;;;;;;;;;;;9.90;99.90;;;;;;10065216;29;19916;-53
2021/05/22 23:06:51;;;;;;;;;;;9.90;99.90;;;;;;10062218;29;20411;-53
2021/05/22 23:11:52;;;;;;;;;;;9.80;99.90;;;;;;10063652;29;19923;-53
2021/05/22 23:16:53;;;;;;;;;;;9.90;99.90;;;;;;10052598;29;19976;-53
2021/05/22 23:21:53;;;;;;;;;;;9.90;99.90;;;;;;10058498;29;20402;-53
2021/05/22 23:26:54;;;;;;;;;;;9.90;99.90;;;;;;10060161;29;20415;-53
2021/05/22 23:31:55;;;;;;;;;;;9.90;99.90;;;;;;10060624;29;20395;-53
2021/05/22 23:36:55;;;;;;;;;;;9.90;99.90;;;;;;10055225;29;19920;-53
2021/05/22 23:41:56;;;;;;;;;;;9.80;99.90;;;;;;10057197;29;19920;-53
2021/05/22 23:46:56;;;;;;;;;;;9.80;99.90;;;;;;10054240;29;20344;-53
2021/05/22 23:51:57;;;;;;;;;;;9.80;99.90;;;;;;10053509;29;19915;-53
2021/05/22 23:56:58;;;;;;;;;;;9.80;99.90;;;;;;10060428;29;19919;-53
